sensor_id;sensor_type;location;lat;lon;timestamp;P1;durP1;ratioP1;P2;durP2;ratioP2
1026;SDS011;502;48.746;9.214;2022-08-21T00:01:10;3.20;;;2.63;;
1026;SDS011;502;48.746;9.214;2022-08-21T00:03:39;4.13;;;3.10;;
1026;SDS011;502;48.746;9.214;2022-08-21T00:06:06;3.50;;;2.97;;
1026;SDS011;502;48.746;9.214;2022-08-21T00:08:33;3.80;;;3.50;;
1026;SDS011;502;48.746;9.214;2022-08-21T00:11:00;3.70;;;2.80;;
1026;SDS011;502;48.746;9.214;2022-08-21T00:13:28;3.10;;;2.80;;
1026;SDS011;502;48.746;9.214;2022-08-21T00:15:55;5.80;;;3.10;;
1026;SDS011;502;48.746;9.214;2022-08-21T00:18:23;2.90;;;2.60;;
1026;SDS011;502;48.746;9.214;2022-08-21T00:20:49;3.43;;;3.00;;
1026;SDS011;502;48.746;9.214;2022-08-21T00:23:16;3.60;;;3.10;;
1026;SDS011;502;48.746;9.214;2022-08-21T00:25:44;3.20;;;2.70;;
1026;SDS011;502;48.746;9.214;2022-08-21T00:28:11;4.90;;;3.40;;
1026;SDS011;502;48.746;9.214;2022-08-21T00:30:41;3.30;;;2.90;;
1026;SDS011;502;48.746;9.214;2022-08-21T00:33:09;3.30;;;2.80;;
1026;SDS011;502;48.746;9.214;2022-08-21T00:35:38;3.93;;;3.20;;
1026;SDS011;502;48.746;9.214;2022-08-21T00:38:07;4.93;;;3.27;;
1026;SDS011;502;48.746;9.214;2022-08-21T00:40:35;6.80;;;3.00;;
1026;SDS011;502;48.746;9.214;2022-08-21T00:43:05;4.70;;;2.83;;
1026;SDS011;502;48.746;9.214;2022-08-21T00:45:34;4.90;;;3.10;;
1026;SDS011;502;48.746;9.214;2022-08-21T00:48:03;5.83;;;3.10;;
1026;SDS011;502;48.746;9.214;2022-08-21T00:50:32;3.97;;;2.90;;
1026;SDS011;502;48.746;9.214;2022-08-21T00:53:02;3.27;;;2.97;;
1026;SDS011;502;48.746;9.214;2022-08-21T00:55:29;5.80;;;3.50;;
1026;SDS011;502;48.746;9.214;2022-08-21T00:57:58;3.83;;;3.43;;
1026;SDS011;502;48.746;9.214;2022-08-21T01:00:27;7.30;;;5.03;;
1026;SDS011;502;48.746;9.214;2022-08-21T01:02:56;7.87;;;5.60;;
1026;SDS011;502;48.746;9.214;2022-08-21T01:05:24;6.20;;;4.27;;
1026;SDS011;502;48.746;9.214;2022-08-21T01:07:51;6.70;;;4.57;;
1026;SDS011;502;48.746;9.214;2022-08-21T01:10:18;4.60;;;4.10;;
1026;SDS011;502;48.746;9.214;2022-08-21T01:12:45;5.33;;;3.47;;
1026;SDS011;502;48.746;9.214;2022-08-21T01:15:12;4.93;;;2.90;;
1026;SDS011;502;48.746;9.214;2022-08-21T01:17:41;6.17;;;3.07;;
1026;SDS011;502;48.746;9.214;2022-08-21T01:20:08;3.23;;;2.97;;
1026;SDS011;502;48.746;9.214;2022-08-21T01:22:38;4.30;;;3.13;;
1026;SDS011;502;48.746;9.214;2022-08-21T01:25:06;5.83;;;3.67;;
1026;SDS011;502;48.746;9.214;2022-08-21T01:27:34;3.80;;;2.90;;
1026;SDS011;502;48.746;9.214;2022-08-21T01:30:04;3.50;;;3.03;;
1026;SDS011;502;48.746;9.214;2022-08-21T01:32:35;3.63;;;2.90;;
1026;SDS011;502;48.746;9.214;2022-08-21T01:35:03;3.53;;;3.00;;
1026;SDS011;502;48.746;9.214;2022-08-21T01:37:30;4.10;;;3.20;;
1026;SDS011;502;48.746;9.214;2022-08-21T01:39:59;3.67;;;3.37;;
1026;SDS011;502;48.746;9.214;2022-08-21T01:42:25;3.80;;;3.00;;
1026;SDS011;502;48.746;9.214;2022-08-21T01:44:52;3.63;;;2.80;;
1026;SDS011;502;48.746;9.214;2022-08-21T01:47:19;5.10;;;3.63;;
1026;SDS011;502;48.746;9.214;2022-08-21T01:49:46;3.60;;;3.07;;
1026;SDS011;502;48.746;9.214;2022-08-21T01:52:12;4.47;;;3.60;;
1026;SDS011;502;48.746;9.214;2022-08-21T01:54:39;3.50;;;3.20;;
1026;SDS011;502;48.746;9.214;2022-08-21T01:57:08;4.30;;;3.50;;
1026;SDS011;502;48.746;9.214;2022-08-21T01:59:35;3.90;;;3.30;;
1026;SDS011;502;48.746;9.214;2022-08-21T02:02:03;4.50;;;3.10;;
1026;SDS011;502;48.746;9.214;2022-08-21T02:04:30;4.13;;;3.73;;
1026;SDS011;502;48.746;9.214;2022-08-21T02:06:56;4.40;;;2.93;;
1026;SDS011;502;48.746;9.214;2022-08-21T02:09:23;3.83;;;3.40;;
1026;SDS011;502;48.746;9.214;2022-08-21T02:11:50;3.50;;;3.20;;
1026;SDS011;502;48.746;9.214;2022-08-21T02:14:18;3.27;;;2.90;;
1026;SDS011;502;48.746;9.214;2022-08-21T02:16:45;4.60;;;3.53;;
1026;SDS011;502;48.746;9.214;2022-08-21T02:19:12;7.13;;;3.37;;
1026;SDS011;502;48.746;9.214;2022-08-21T02:21:40;4.00;;;3.00;;
1026;SDS011;502;48.746;9.214;2022-08-21T02:24:07;3.93;;;3.53;;
1026;SDS011;502;48.746;9.214;2022-08-21T02:26:34;3.87;;;3.47;;
1026;SDS011;502;48.746;9.214;2022-08-21T02:29:02;4.13;;;3.07;;
1026;SDS011;502;48.746;9.214;2022-08-21T02:31:30;5.17;;;3.00;;
1026;SDS011;502;48.746;9.214;2022-08-21T02:33:57;4.77;;;3.90;;
1026;SDS011;502;48.746;9.214;2022-08-21T02:36:24;5.00;;;3.33;;
1026;SDS011;502;48.746;9.214;2022-08-21T02:38:51;3.47;;;3.17;;
1026;SDS011;502;48.746;9.214;2022-08-21T02:41:19;4.00;;;3.33;;
1026;SDS011;502;48.746;9.214;2022-08-21T02:43:47;3.83;;;3.53;;
1026;SDS011;502;48.746;9.214;2022-08-21T02:46:14;4.93;;;3.70;;
1026;SDS011;502;48.746;9.214;2022-08-21T02:48:44;4.97;;;3.60;;
1026;SDS011;502;48.746;9.214;2022-08-21T02:51:12;6.23;;;3.53;;
1026;SDS011;502;48.746;9.214;2022-08-21T02:53:40;4.47;;;3.40;;
1026;SDS011;502;48.746;9.214;2022-08-21T02:56:08;4.17;;;3.77;;
1026;SDS011;502;48.746;9.214;2022-08-21T02:58:38;4.23;;;3.30;;
1026;SDS011;502;48.746;9.214;2022-08-21T03:01:07;4.30;;;3.90;;
1026;SDS011;502;48.746;9.214;2022-08-21T03:03:34;4.77;;;3.80;;
1026;SDS011;502;48.746;9.214;2022-08-21T03:06:04;5.90;;;4.10;;
1026;SDS011;502;48.746;9.214;2022-08-21T03:08:31;4.20;;;3.50;;
1026;SDS011;502;48.746;9.214;2022-08-21T03:10:58;4.63;;;4.20;;
1026;SDS011;502;48.746;9.214;2022-08-21T03:13:25;5.40;;;3.60;;
1026;SDS011;502;48.746;9.214;2022-08-21T03:15:53;4.97;;;3.70;;
1026;SDS011;502;48.746;9.214;2022-08-21T03:18:20;3.87;;;3.57;;
1026;SDS011;502;48.746;9.214;2022-08-21T03:20:47;5.33;;;3.23;;
1026;SDS011;502;48.746;9.214;2022-08-21T03:23:16;5.67;;;3.40;;
1026;SDS011;502;48.746;9.214;2022-08-21T03:25:43;5.30;;;4.40;;
1026;SDS011;502;48.746;9.214;2022-08-21T03:28:12;4.30;;;3.57;;
1026;SDS011;502;48.746;9.214;2022-08-21T03:30:40;6.83;;;4.07;;
1026;SDS011;502;48.746;9.214;2022-08-21T03:33:07;5.37;;;3.50;;
1026;SDS011;502;48.746;9.214;2022-08-21T03:35:34;4.40;;;4.00;;
1026;SDS011;502;48.746;9.214;2022-08-21T03:38:01;5.20;;;3.33;;
1026;SDS011;502;48.746;9.214;2022-08-21T03:40:29;4.90;;;3.53;;
1026;SDS011;502;48.746;9.214;2022-08-21T03:42:56;4.27;;;3.87;;
1026;SDS011;502;48.746;9.214;2022-08-21T03:45:24;4.90;;;3.50;;
1026;SDS011;502;48.746;9.214;2022-08-21T03:47:52;4.40;;;3.30;;
1026;SDS011;502;48.746;9.214;2022-08-21T03:50:20;4.37;;;3.23;;
1026;SDS011;502;48.746;9.214;2022-08-21T03:52:48;4.00;;;3.60;;
1026;SDS011;502;48.746;9.214;2022-08-21T03:55:15;4.97;;;4.10;;
1026;SDS011;502;48.746;9.214;2022-08-21T03:57:43;4.90;;;3.50;;
1026;SDS011;502;48.746;9.214;2022-08-21T04:00:10;4.40;;;3.70;;
1026;SDS011;502;48.746;9.214;2022-08-21T04:02:38;5.20;;;4.00;;
1026;SDS011;502;48.746;9.214;2022-08-21T04:05:05;3.47;;;3.17;;
1026;SDS011;502;48.746;9.214;2022-08-21T04:07:33;7.00;;;4.07;;
1026;SDS011;502;48.746;9.214;2022-08-21T04:10:00;5.43;;;4.17;;
1026;SDS011;502;48.746;9.214;2022-08-21T04:12:27;4.53;;;3.57;;
1026;SDS011;502;48.746;9.214;2022-08-21T04:14:55;3.97;;;3.57;;
1026;SDS011;502;48.746;9.214;2022-08-21T04:17:22;7.43;;;3.80;;
1026;SDS011;502;48.746;9.214;2022-08-21T04:19:48;5.03;;;4.53;;
1026;SDS011;502;48.746;9.214;2022-08-21T04:22:15;11.23;;;3.73;;
1026;SDS011;502;48.746;9.214;2022-08-21T04:24:42;4.10;;;3.70;;
1026;SDS011;502;48.746;9.214;2022-08-21T04:27:09;4.30;;;3.80;;
1026;SDS011;502;48.746;9.214;2022-08-21T04:29:36;3.90;;;3.50;;
1026;SDS011;502;48.746;9.214;2022-08-21T04:32:04;4.53;;;3.40;;
1026;SDS011;502;48.746;9.214;2022-08-21T04:34:32;4.50;;;3.57;;
1026;SDS011;502;48.746;9.214;2022-08-21T04:36:58;5.30;;;3.63;;
1026;SDS011;502;48.746;9.214;2022-08-21T04:39:25;4.33;;;3.90;;
1026;SDS011;502;48.746;9.214;2022-08-21T04:41:52;4.33;;;3.50;;
1026;SDS011;502;48.746;9.214;2022-08-21T04:44:18;3.87;;;3.57;;
1026;SDS011;502;48.746;9.214;2022-08-21T04:46:45;6.33;;;3.90;;
1026;SDS011;502;48.746;9.214;2022-08-21T04:49:13;4.57;;;3.70;;
1026;SDS011;502;48.746;9.214;2022-08-21T04:51:40;4.93;;;3.83;;
1026;SDS011;502;48.746;9.214;2022-08-21T04:54:08;7.13;;;3.60;;
1026;SDS011;502;48.746;9.214;2022-08-21T04:56:39;3.57;;;3.03;;
1026;SDS011;502;48.746;9.214;2022-08-21T04:59:07;4.00;;;3.37;;
1026;SDS011;502;48.746;9.214;2022-08-21T05:01:38;5.00;;;4.17;;
1026;SDS011;502;48.746;9.214;2022-08-21T05:04:06;4.47;;;3.80;;
1026;SDS011;502;48.746;9.214;2022-08-21T05:06:36;4.30;;;3.90;;
1026;SDS011;502;48.746;9.214;2022-08-21T05:09:04;8.00;;;4.10;;
1026;SDS011;502;48.746;9.214;2022-08-21T05:11:31;4.13;;;3.47;;
1026;SDS011;502;48.746;9.214;2022-08-21T05:14:00;4.00;;;3.60;;
1026;SDS011;502;48.746;9.214;2022-08-21T05:16:27;4.10;;;3.70;;
1026;SDS011;502;48.746;9.214;2022-08-21T05:18:53;6.20;;;3.50;;
1026;SDS011;502;48.746;9.214;2022-08-21T05:21:20;4.50;;;4.10;;
1026;SDS011;502;48.746;9.214;2022-08-21T05:23:48;4.67;;;3.60;;
1026;SDS011;502;48.746;9.214;2022-08-21T05:26:15;5.07;;;3.60;;
1026;SDS011;502;48.746;9.214;2022-08-21T05:28:41;4.57;;;4.17;;
1026;SDS011;502;48.746;9.214;2022-08-21T05:31:08;4.63;;;3.90;;
1026;SDS011;502;48.746;9.214;2022-08-21T05:33:35;4.23;;;3.83;;
1026;SDS011;502;48.746;9.214;2022-08-21T05:36:02;4.50;;;4.07;;
1026;SDS011;502;48.746;9.214;2022-08-21T05:38:29;4.20;;;3.30;;
1026;SDS011;502;48.746;9.214;2022-08-21T05:40:57;5.90;;;4.33;;
1026;SDS011;502;48.746;9.214;2022-08-21T05:43:24;5.27;;;3.57;;
1026;SDS011;502;48.746;9.214;2022-08-21T05:45:50;4.40;;;3.50;;
1026;SDS011;502;48.746;9.214;2022-08-21T05:48:18;4.80;;;4.30;;
1026;SDS011;502;48.746;9.214;2022-08-21T05:50:47;5.40;;;4.20;;
1026;SDS011;502;48.746;9.214;2022-08-21T05:53:15;4.10;;;3.57;;
1026;SDS011;502;48.746;9.214;2022-08-21T05:55:43;4.30;;;3.63;;
1026;SDS011;502;48.746;9.214;2022-08-21T05:58:11;4.30;;;3.67;;
1026;SDS011;502;48.746;9.214;2022-08-21T06:00:39;6.73;;;3.37;;
1026;SDS011;502;48.746;9.214;2022-08-21T06:03:10;5.57;;;3.80;;
1026;SDS011;502;48.746;9.214;2022-08-21T06:05:37;3.97;;;3.57;;
1026;SDS011;502;48.746;9.214;2022-08-21T06:08:04;5.33;;;4.20;;
1026;SDS011;502;48.746;9.214;2022-08-21T06:10:30;4.50;;;3.83;;
1026;SDS011;502;48.746;9.214;2022-08-21T06:12:57;4.47;;;3.90;;
1026;SDS011;502;48.746;9.214;2022-08-21T06:15:25;4.93;;;3.77;;
1026;SDS011;502;48.746;9.214;2022-08-21T06:17:52;3.47;;;3.17;;
1026;SDS011;502;48.746;9.214;2022-08-21T06:20:19;3.73;;;3.33;;
1026;SDS011;502;48.746;9.214;2022-08-21T06:22:46;4.80;;;3.37;;
1026;SDS011;502;48.746;9.214;2022-08-21T06:25:13;5.67;;;3.37;;
1026;SDS011;502;48.746;9.214;2022-08-21T06:27:39;4.53;;;4.13;;
1026;SDS011;502;48.746;9.214;2022-08-21T06:30:07;4.60;;;3.60;;
1026;SDS011;502;48.746;9.214;2022-08-21T06:32:36;4.60;;;3.50;;
1026;SDS011;502;48.746;9.214;2022-08-21T06:35:03;4.47;;;3.20;;
1026;SDS011;502;48.746;9.214;2022-08-21T06:37:31;4.77;;;3.70;;
1026;SDS011;502;48.746;9.214;2022-08-21T06:39:58;4.53;;;3.87;;
1026;SDS011;502;48.746;9.214;2022-08-21T06:42:24;4.00;;;3.50;;
1026;SDS011;502;48.746;9.214;2022-08-21T06:44:53;5.30;;;3.60;;
1026;SDS011;502;48.746;9.214;2022-08-21T06:47:20;3.50;;;3.20;;
1026;SDS011;502;48.746;9.214;2022-08-21T06:49:48;5.20;;;3.63;;
1026;SDS011;502;48.746;9.214;2022-08-21T06:52:15;4.43;;;4.03;;
1026;SDS011;502;48.746;9.214;2022-08-21T06:54:42;4.10;;;3.60;;
1026;SDS011;502;48.746;9.214;2022-08-21T06:57:09;6.73;;;3.93;;
1026;SDS011;502;48.746;9.214;2022-08-21T06:59:35;5.00;;;3.93;;
1026;SDS011;502;48.746;9.214;2022-08-21T07:02:03;7.37;;;3.93;;
1026;SDS011;502;48.746;9.214;2022-08-21T07:04:30;5.43;;;4.20;;
1026;SDS011;502;48.746;9.214;2022-08-21T07:06:58;4.27;;;3.70;;
1026;SDS011;502;48.746;9.214;2022-08-21T07:09:25;4.47;;;4.07;;
1026;SDS011;502;48.746;9.214;2022-08-21T07:11:53;3.93;;;3.60;;
1026;SDS011;502;48.746;9.214;2022-08-21T07:14:22;4.23;;;3.80;;
1026;SDS011;502;48.746;9.214;2022-08-21T07:16:49;4.20;;;3.80;;
1026;SDS011;502;48.746;9.214;2022-08-21T07:19:17;4.40;;;4.00;;
1026;SDS011;502;48.746;9.214;2022-08-21T07:21:44;6.77;;;4.40;;
1026;SDS011;502;48.746;9.214;2022-08-21T07:24:12;4.57;;;4.17;;
1026;SDS011;502;48.746;9.214;2022-08-21T07:26:39;5.93;;;4.20;;
1026;SDS011;502;48.746;9.214;2022-08-21T07:29:06;5.77;;;4.10;;
1026;SDS011;502;48.746;9.214;2022-08-21T07:31:33;4.73;;;4.00;;
1026;SDS011;502;48.746;9.214;2022-08-21T07:34:00;5.17;;;4.30;;
1026;SDS011;502;48.746;9.214;2022-08-21T07:36:27;4.43;;;3.80;;
1026;SDS011;502;48.746;9.214;2022-08-21T07:38:53;5.33;;;4.67;;
1026;SDS011;502;48.746;9.214;2022-08-21T07:41:23;4.20;;;3.80;;
1026;SDS011;502;48.746;9.214;2022-08-21T07:43:51;4.20;;;3.77;;
1026;SDS011;502;48.746;9.214;2022-08-21T07:46:18;4.40;;;4.00;;
1026;SDS011;502;48.746;9.214;2022-08-21T07:48:48;4.33;;;3.93;;
1026;SDS011;502;48.746;9.214;2022-08-21T07:51:15;5.30;;;4.50;;
1026;SDS011;502;48.746;9.214;2022-08-21T07:53:47;4.60;;;4.20;;
1026;SDS011;502;48.746;9.214;2022-08-21T07:56:15;4.13;;;3.73;;
1026;SDS011;502;48.746;9.214;2022-08-21T07:58:43;4.87;;;3.80;;
1026;SDS011;502;48.746;9.214;2022-08-21T08:01:10;6.47;;;4.67;;
1026;SDS011;502;48.746;9.214;2022-08-21T08:03:37;4.93;;;4.50;;
1026;SDS011;502;48.746;9.214;2022-08-21T08:06:05;7.47;;;3.97;;
1026;SDS011;502;48.746;9.214;2022-08-21T08:08:36;6.03;;;4.57;;
1026;SDS011;502;48.746;9.214;2022-08-21T08:11:03;5.70;;;4.00;;
1026;SDS011;502;48.746;9.214;2022-08-21T08:13:29;4.80;;;4.27;;
1026;SDS011;502;48.746;9.214;2022-08-21T08:15:58;6.43;;;4.43;;
1026;SDS011;502;48.746;9.214;2022-08-21T08:18:24;6.13;;;5.30;;
1026;SDS011;502;48.746;9.214;2022-08-21T08:20:51;5.37;;;4.87;;
1026;SDS011;502;48.746;9.214;2022-08-21T08:23:18;5.00;;;4.40;;
1026;SDS011;502;48.746;9.214;2022-08-21T08:25:44;5.43;;;4.87;;
1026;SDS011;502;48.746;9.214;2022-08-21T08:28:11;5.93;;;4.60;;
1026;SDS011;502;48.746;9.214;2022-08-21T08:30:38;7.23;;;4.30;;
1026;SDS011;502;48.746;9.214;2022-08-21T08:33:06;4.70;;;4.30;;
1026;SDS011;502;48.746;9.214;2022-08-21T08:35:33;5.10;;;4.43;;
1026;SDS011;502;48.746;9.214;2022-08-21T08:37:59;4.73;;;3.93;;
1026;SDS011;502;48.746;9.214;2022-08-21T08:40:28;5.53;;;3.70;;
1026;SDS011;502;48.746;9.214;2022-08-21T08:43:00;6.13;;;4.90;;
1026;SDS011;502;48.746;9.214;2022-08-21T08:45:27;5.17;;;4.63;;
1026;SDS011;502;48.746;9.214;2022-08-21T08:47:58;6.07;;;4.43;;
1026;SDS011;502;48.746;9.214;2022-08-21T08:50:31;5.77;;;4.60;;
1026;SDS011;502;48.746;9.214;2022-08-21T08:53:03;5.30;;;4.80;;
1026;SDS011;502;48.746;9.214;2022-08-21T08:55:33;4.83;;;4.33;;
1026;SDS011;502;48.746;9.214;2022-08-21T08:58:01;5.53;;;4.30;;
1026;SDS011;502;48.746;9.214;2022-08-21T09:00:29;5.77;;;3.93;;
1026;SDS011;502;48.746;9.214;2022-08-21T09:02:57;5.33;;;4.37;;
1026;SDS011;502;48.746;9.214;2022-08-21T09:05:27;6.30;;;4.60;;
1026;SDS011;502;48.746;9.214;2022-08-21T09:08:10;5.93;;;4.10;;
1026;SDS011;502;48.746;9.214;2022-08-21T09:10:45;4.50;;;4.10;;
1026;SDS011;502;48.746;9.214;2022-08-21T09:13:19;4.83;;;4.43;;
1026;SDS011;502;48.746;9.214;2022-08-21T09:15:52;6.20;;;4.50;;
1026;SDS011;502;48.746;9.214;2022-08-21T09:18:25;5.50;;;4.13;;
1026;SDS011;502;48.746;9.214;2022-08-21T09:21:05;5.87;;;5.20;;
1026;SDS011;502;48.746;9.214;2022-08-21T09:23:40;5.30;;;4.20;;
1026;SDS011;502;48.746;9.214;2022-08-21T09:26:12;6.07;;;4.37;;
1026;SDS011;502;48.746;9.214;2022-08-21T09:28:40;4.67;;;4.10;;
1026;SDS011;502;48.746;9.214;2022-08-21T09:31:08;7.30;;;5.33;;
1026;SDS011;502;48.746;9.214;2022-08-21T09:33:40;5.93;;;4.70;;
1026;SDS011;502;48.746;9.214;2022-08-21T09:36:08;6.20;;;4.93;;
1026;SDS011;502;48.746;9.214;2022-08-21T09:38:36;5.53;;;4.80;;
1026;SDS011;502;48.746;9.214;2022-08-21T09:41:03;5.17;;;4.70;;
1026;SDS011;502;48.746;9.214;2022-08-21T09:43:31;5.33;;;4.73;;
1026;SDS011;502;48.746;9.214;2022-08-21T09:46:07;4.80;;;3.70;;
1026;SDS011;502;48.746;9.214;2022-08-21T09:48:40;5.20;;;4.70;;
1026;SDS011;502;48.746;9.214;2022-08-21T09:51:11;5.70;;;4.43;;
1026;SDS011;502;48.746;9.214;2022-08-21T09:53:41;4.53;;;4.10;;
1026;SDS011;502;48.746;9.214;2022-08-21T09:56:17;5.03;;;4.53;;
1026;SDS011;502;48.746;9.214;2022-08-21T09:59:12;6.40;;;5.73;;
1026;SDS011;502;48.746;9.214;2022-08-21T10:01:42;6.20;;;4.50;;
1026;SDS011;502;48.746;9.214;2022-08-21T10:04:09;5.03;;;4.50;;
1026;SDS011;502;48.746;9.214;2022-08-21T10:06:38;5.97;;;4.20;;
1026;SDS011;502;48.746;9.214;2022-08-21T10:09:05;5.87;;;4.40;;
1026;SDS011;502;48.746;9.214;2022-08-21T10:11:35;5.60;;;5.10;;
1026;SDS011;502;48.746;9.214;2022-08-21T10:14:05;7.83;;;4.63;;
1026;SDS011;502;48.746;9.214;2022-08-21T10:16:39;4.47;;;3.90;;
1026;SDS011;502;48.746;9.214;2022-08-21T10:19:16;6.60;;;4.30;;
1026;SDS011;502;48.746;9.214;2022-08-21T10:21:50;6.10;;;5.50;;
1026;SDS011;502;48.746;9.214;2022-08-21T10:24:26;5.10;;;4.50;;
1026;SDS011;502;48.746;9.214;2022-08-21T10:27:00;6.83;;;4.77;;
1026;SDS011;502;48.746;9.214;2022-08-21T10:29:36;8.27;;;5.47;;
1026;SDS011;502;48.746;9.214;2022-08-21T10:32:13;5.07;;;4.57;;
1026;SDS011;502;48.746;9.214;2022-08-21T10:34:50;5.33;;;4.47;;
1026;SDS011;502;48.746;9.214;2022-08-21T10:37:25;4.30;;;3.90;;
1026;SDS011;502;48.746;9.214;2022-08-21T10:40:07;4.90;;;4.50;;
1026;SDS011;502;48.746;9.214;2022-08-21T10:42:43;6.83;;;5.07;;
1026;SDS011;502;48.746;9.214;2022-08-21T10:45:20;5.23;;;4.77;;
1026;SDS011;502;48.746;9.214;2022-08-21T10:47:52;4.93;;;4.43;;
1026;SDS011;502;48.746;9.214;2022-08-21T10:50:25;4.63;;;4.20;;
1026;SDS011;502;48.746;9.214;2022-08-21T10:53:15;5.03;;;4.60;;
1026;SDS011;502;48.746;9.214;2022-08-21T10:55:51;5.73;;;5.23;;
1026;SDS011;502;48.746;9.214;2022-08-21T10:58:24;5.17;;;4.57;;
1026;SDS011;502;48.746;9.214;2022-08-21T11:00:55;5.40;;;4.40;;
1026;SDS011;502;48.746;9.214;2022-08-21T11:03:24;5.67;;;4.87;;
1026;SDS011;502;48.746;9.214;2022-08-21T11:05:58;7.83;;;4.40;;
1026;SDS011;502;48.746;9.214;2022-08-21T11:08:31;6.57;;;4.40;;
1026;SDS011;502;48.746;9.214;2022-08-21T11:11:01;6.00;;;4.70;;
1026;SDS011;502;48.746;9.214;2022-08-21T11:13:31;7.03;;;4.90;;
1026;SDS011;502;48.746;9.214;2022-08-21T11:16:03;6.13;;;5.00;;
1026;SDS011;502;48.746;9.214;2022-08-21T11:18:34;6.23;;;4.80;;
1026;SDS011;502;48.746;9.214;2022-08-21T11:21:06;5.27;;;4.17;;
1026;SDS011;502;48.746;9.214;2022-08-21T11:23:43;6.20;;;5.07;;
1026;SDS011;502;48.746;9.214;2022-08-21T11:26:13;5.17;;;4.67;;
1026;SDS011;502;48.746;9.214;2022-08-21T11:28:43;6.10;;;4.17;;
1026;SDS011;502;48.746;9.214;2022-08-21T11:31:18;7.13;;;4.70;;
1026;SDS011;502;48.746;9.214;2022-08-21T11:33:55;4.13;;;3.73;;
1026;SDS011;502;48.746;9.214;2022-08-21T11:36:32;5.20;;;4.70;;
1026;SDS011;502;48.746;9.214;2022-08-21T11:39:06;6.80;;;4.40;;
1026;SDS011;502;48.746;9.214;2022-08-21T11:41:40;4.90;;;4.40;;
1026;SDS011;502;48.746;9.214;2022-08-21T11:44:13;4.90;;;4.40;;
1026;SDS011;502;48.746;9.214;2022-08-21T11:46:47;7.40;;;4.37;;
1026;SDS011;502;48.746;9.214;2022-08-21T11:49:20;4.80;;;4.27;;
1026;SDS011;502;48.746;9.214;2022-08-21T11:51:57;4.77;;;4.00;;
1026;SDS011;502;48.746;9.214;2022-08-21T11:54:31;4.70;;;4.30;;
1026;SDS011;502;48.746;9.214;2022-08-21T11:57:01;6.67;;;4.70;;
1026;SDS011;502;48.746;9.214;2022-08-21T11:59:32;9.10;;;4.20;;
1026;SDS011;502;48.746;9.214;2022-08-21T12:02:02;5.03;;;3.93;;
1026;SDS011;502;48.746;9.214;2022-08-21T12:04:34;4.63;;;3.67;;
1026;SDS011;502;48.746;9.214;2022-08-21T12:07:12;4.83;;;4.33;;
1026;SDS011;502;48.746;9.214;2022-08-21T12:09:51;4.33;;;3.93;;
1026;SDS011;502;48.746;9.214;2022-08-21T12:12:23;5.70;;;4.37;;
1026;SDS011;502;48.746;9.214;2022-08-21T12:15:02;3.90;;;3.60;;
1026;SDS011;502;48.746;9.214;2022-08-21T12:17:50;4.40;;;3.80;;
1026;SDS011;502;48.746;9.214;2022-08-21T12:20:22;6.30;;;4.13;;
1026;SDS011;502;48.746;9.214;2022-08-21T12:23:02;4.73;;;4.13;;
1026;SDS011;502;48.746;9.214;2022-08-21T12:25:37;4.90;;;4.30;;
1026;SDS011;502;48.746;9.214;2022-08-21T12:28:07;5.40;;;4.00;;
1026;SDS011;502;48.746;9.214;2022-08-21T12:30:38;4.93;;;4.43;;
1026;SDS011;502;48.746;9.214;2022-08-21T12:33:18;6.07;;;4.27;;
1026;SDS011;502;48.746;9.214;2022-08-21T12:35:50;4.30;;;3.90;;
1026;SDS011;502;48.746;9.214;2022-08-21T12:38:21;5.23;;;4.50;;
1026;SDS011;502;48.746;9.214;2022-08-21T12:40:56;5.10;;;4.00;;
1026;SDS011;502;48.746;9.214;2022-08-21T12:43:27;5.20;;;4.70;;
1026;SDS011;502;48.746;9.214;2022-08-21T12:46:00;8.53;;;4.13;;
1026;SDS011;502;48.746;9.214;2022-08-21T12:48:31;5.43;;;4.50;;
1026;SDS011;502;48.746;9.214;2022-08-21T12:51:22;5.43;;;4.40;;
1026;SDS011;502;48.746;9.214;2022-08-21T12:53:52;5.00;;;4.50;;
1026;SDS011;502;48.746;9.214;2022-08-21T12:56:21;4.67;;;4.27;;
1026;SDS011;502;48.746;9.214;2022-08-21T12:58:49;7.20;;;4.20;;
1026;SDS011;502;48.746;9.214;2022-08-21T13:01:19;6.77;;;4.63;;
1026;SDS011;502;48.746;9.214;2022-08-21T13:03:49;4.43;;;4.03;;
1026;SDS011;502;48.746;9.214;2022-08-21T13:06:17;7.47;;;4.40;;
1026;SDS011;502;48.746;9.214;2022-08-21T13:08:45;6.67;;;4.60;;
1026;SDS011;502;48.746;9.214;2022-08-21T13:11:14;4.83;;;4.40;;
1026;SDS011;502;48.746;9.214;2022-08-21T13:13:49;5.30;;;4.40;;
1026;SDS011;502;48.746;9.214;2022-08-21T13:16:18;4.50;;;3.87;;
1026;SDS011;502;48.746;9.214;2022-08-21T13:18:51;4.50;;;4.10;;
1026;SDS011;502;48.746;9.214;2022-08-21T13:21:20;4.60;;;4.20;;
1026;SDS011;502;48.746;9.214;2022-08-21T13:23:47;4.67;;;3.83;;
1026;SDS011;502;48.746;9.214;2022-08-21T13:26:14;7.40;;;4.00;;
1026;SDS011;502;48.746;9.214;2022-08-21T13:28:42;4.47;;;3.60;;
1026;SDS011;502;48.746;9.214;2022-08-21T13:31:16;4.50;;;4.10;;
1026;SDS011;502;48.746;9.214;2022-08-21T13:33:44;5.40;;;4.87;;
1026;SDS011;502;48.746;9.214;2022-08-21T13:36:11;5.70;;;3.83;;
1026;SDS011;502;48.746;9.214;2022-08-21T13:38:43;4.67;;;4.27;;
1026;SDS011;502;48.746;9.214;2022-08-21T13:41:12;8.27;;;3.93;;
1026;SDS011;502;48.746;9.214;2022-08-21T13:43:48;5.07;;;4.57;;
1026;SDS011;502;48.746;9.214;2022-08-21T13:46:24;5.20;;;3.90;;
1026;SDS011;502;48.746;9.214;2022-08-21T13:48:53;3.90;;;3.60;;
1026;SDS011;502;48.746;9.214;2022-08-21T13:51:21;4.70;;;4.03;;
1026;SDS011;502;48.746;9.214;2022-08-21T13:53:49;5.00;;;4.50;;
1026;SDS011;502;48.746;9.214;2022-08-21T13:56:21;4.67;;;3.70;;
1026;SDS011;502;48.746;9.214;2022-08-21T13:58:51;5.03;;;4.07;;
1026;SDS011;502;48.746;9.214;2022-08-21T14:01:19;4.70;;;4.20;;
1026;SDS011;502;48.746;9.214;2022-08-21T14:03:50;4.80;;;4.30;;
1026;SDS011;502;48.746;9.214;2022-08-21T14:06:20;4.87;;;3.90;;
1026;SDS011;502;48.746;9.214;2022-08-21T14:08:49;4.20;;;3.80;;
1026;SDS011;502;48.746;9.214;2022-08-21T14:11:18;7.73;;;4.30;;
1026;SDS011;502;48.746;9.214;2022-08-21T14:13:46;6.10;;;4.37;;
1026;SDS011;502;48.746;9.214;2022-08-21T14:16:17;4.80;;;4.13;;
1026;SDS011;502;48.746;9.214;2022-08-21T14:18:46;4.70;;;4.00;;
1026;SDS011;502;48.746;9.214;2022-08-21T14:21:23;5.23;;;4.50;;
1026;SDS011;502;48.746;9.214;2022-08-21T14:24:02;4.80;;;4.30;;
1026;SDS011;502;48.746;9.214;2022-08-21T14:26:29;5.47;;;4.03;;
1026;SDS011;502;48.746;9.214;2022-08-21T14:28:58;4.70;;;4.30;;
1026;SDS011;502;48.746;9.214;2022-08-21T14:31:28;5.27;;;4.17;;
1026;SDS011;502;48.746;9.214;2022-08-21T14:33:55;6.10;;;4.23;;
1026;SDS011;502;48.746;9.214;2022-08-21T14:36:23;4.30;;;3.90;;
1026;SDS011;502;48.746;9.214;2022-08-21T14:38:50;4.30;;;3.93;;
1026;SDS011;502;48.746;9.214;2022-08-21T14:41:18;5.10;;;4.23;;
1026;SDS011;502;48.746;9.214;2022-08-21T14:43:46;6.70;;;3.97;;
1026;SDS011;502;48.746;9.214;2022-08-21T14:46:16;4.73;;;4.10;;
1026;SDS011;502;48.746;9.214;2022-08-21T14:48:46;4.70;;;4.30;;
1026;SDS011;502;48.746;9.214;2022-08-21T14:51:14;5.10;;;4.03;;
1026;SDS011;502;48.746;9.214;2022-08-21T14:53:42;4.73;;;4.30;;
1026;SDS011;502;48.746;9.214;2022-08-21T14:56:09;4.20;;;3.70;;
1026;SDS011;502;48.746;9.214;2022-08-21T14:58:39;5.43;;;4.00;;
1026;SDS011;502;48.746;9.214;2022-08-21T15:01:08;4.40;;;4.00;;
1026;SDS011;502;48.746;9.214;2022-08-21T15:03:36;4.77;;;3.77;;
1026;SDS011;502;48.746;9.214;2022-08-21T15:06:04;3.87;;;3.57;;
1026;SDS011;502;48.746;9.214;2022-08-21T15:08:31;4.60;;;4.20;;
1026;SDS011;502;48.746;9.214;2022-08-21T15:10:59;5.67;;;4.07;;
1026;SDS011;502;48.746;9.214;2022-08-21T15:13:27;5.13;;;4.13;;
1026;SDS011;502;48.746;9.214;2022-08-21T15:15:55;5.00;;;3.90;;
1026;SDS011;502;48.746;9.214;2022-08-21T15:18:23;4.80;;;4.17;;
1026;SDS011;502;48.746;9.214;2022-08-21T15:20:50;4.60;;;3.83;;
1026;SDS011;502;48.746;9.214;2022-08-21T15:23:18;5.70;;;4.17;;
1026;SDS011;502;48.746;9.214;2022-08-21T15:25:45;5.33;;;4.47;;
1026;SDS011;502;48.746;9.214;2022-08-21T15:28:15;4.23;;;3.73;;
1026;SDS011;502;48.746;9.214;2022-08-21T15:30:43;4.73;;;4.23;;
1026;SDS011;502;48.746;9.214;2022-08-21T15:33:10;4.10;;;3.70;;
1026;SDS011;502;48.746;9.214;2022-08-21T15:35:37;5.67;;;3.83;;
1026;SDS011;502;48.746;9.214;2022-08-21T15:38:05;4.90;;;4.40;;
1026;SDS011;502;48.746;9.214;2022-08-21T15:40:32;6.90;;;3.93;;
1026;SDS011;502;48.746;9.214;2022-08-21T15:43:01;4.00;;;3.60;;